createdAt,value
2023-05-22T00:01:07.489Z,94.00
2023-05-22T00:11:09.897Z,93.71
2023-05-22T00:21:12.507Z,92.47
2023-05-22T00:31:14.821Z,92.86
2023-05-22T00:41:17.172Z,93.80
2023-05-22T00:51:22.919Z,93.07
2023-05-22T01:01:26.822Z,93.11
2023-05-22T01:11:36.562Z,92.90
2023-05-22T01:21:53.778Z,92.24
2023-05-22T04:27:30.655Z,100.00
2023-05-22T04:37:33.026Z,100.00
2023-05-22T04:47:35.482Z,100.00
2023-05-22T04:57:38.906Z,100.00
2023-05-22T05:07:43.764Z,88.32
2023-05-22T05:17:46.530Z,85.24
2023-05-22T05:27:48.933Z,82.44
2023-05-22T05:37:51.958Z,80.02
2023-05-22T05:47:54.470Z,81.39
2023-05-22T05:57:56.886Z,81.18
2023-05-22T06:07:59.220Z,84.67
2023-05-22T06:18:02.809Z,86.03
2023-05-22T06:28:06.278Z,81.60
2023-05-22T06:38:08.706Z,72.75
2023-05-22T06:48:12.230Z,60.72
2023-05-22T06:58:14.643Z,57.79
2023-05-22T07:08:17.008Z,54.13
2023-05-22T07:18:19.388Z,54.90
2023-05-22T07:28:21.717Z,49.27
2023-05-22T07:38:24.042Z,32.89
2023-05-22T07:48:26.520Z,49.29
2023-05-22T07:58:28.848Z,48.94
2023-05-22T08:08:32.107Z,45.62
2023-05-22T08:18:34.883Z,46.33
2023-05-22T08:28:37.808Z,42.88
2023-05-22T08:38:40.251Z,46.86
2023-05-22T08:48:42.834Z,44.93
2023-05-22T08:58:46.518Z,43.10
2023-05-22T09:08:51.347Z,42.49
2023-05-22T09:18:54.093Z,43.71
2023-05-22T09:28:57.478Z,46.27
2023-05-22T09:39:04.649Z,44.94
2023-05-22T09:49:07.040Z,42.08
2023-05-22T09:59:10.032Z,47.60
2023-05-22T10:09:19.299Z,43.03
2023-05-22T10:19:27.371Z,44.26
2023-05-22T10:29:36.781Z,43.01
2023-05-22T10:39:57.355Z,42.38
2023-05-22T10:50:07.921Z,43.85
2023-05-22T11:00:16.214Z,40.60
2023-05-22T11:10:27.179Z,40.98
2023-05-22T11:20:31.321Z,40.17
2023-05-22T11:30:34.949Z,41.26
2023-05-22T11:40:38.057Z,40.00
2023-05-22T11:50:44.081Z,38.83
2023-05-22T12:00:46.793Z,37.73
2023-05-22T12:10:53.856Z,40.02
2023-05-22T12:20:56.494Z,37.85
2023-05-22T12:30:59.051Z,41.52
2023-05-22T12:41:01.527Z,38.07
2023-05-22T12:51:04.074Z,38.95
2023-05-22T13:01:06.587Z,38.90
2023-05-22T13:11:11.371Z,38.32
2023-05-22T13:21:13.951Z,37.75
2023-05-22T13:31:16.450Z,38.53
2023-05-22T13:41:18.933Z,38.14
2023-05-22T13:51:21.333Z,39.39
2023-05-22T14:01:24.193Z,38.35
2023-05-22T14:11:27.479Z,37.62
2023-05-22T14:21:30.273Z,36.65
2023-05-22T14:31:32.776Z,37.45
2023-05-22T14:41:35.196Z,38.50
2023-05-22T14:51:37.589Z,39.84
2023-05-22T15:01:40.104Z,37.96
2023-05-22T15:11:47.054Z,38.15
2023-05-22T15:21:49.479Z,37.09
2023-05-22T15:31:51.844Z,37.88
2023-05-22T15:42:05.262Z,38.34
2023-05-22T15:52:08.593Z,37.24
2023-05-22T16:02:11.054Z,38.96
2023-05-22T16:12:13.440Z,37.84
2023-05-22T16:22:15.883Z,37.81
2023-05-22T16:32:18.240Z,39.14
2023-05-22T16:42:20.769Z,39.10
2023-05-22T16:52:23.867Z,39.89
2023-05-22T17:02:26.323Z,40.76
2023-05-22T17:12:28.908Z,41.64
2023-05-22T17:22:31.370Z,42.36
2023-05-22T17:32:34.682Z,46.59
2023-05-22T17:42:37.312Z,53.03
2023-05-22T17:52:41.200Z,55.58
2023-05-22T18:02:44.499Z,59.24
2023-05-22T18:12:46.967Z,61.29
2023-05-22T18:22:49.471Z,63.98
2023-05-22T18:32:52.037Z,65.94
2023-05-22T18:42:54.436Z,67.30
2023-05-22T18:52:56.890Z,67.16
2023-05-22T19:02:59.516Z,68.79
2023-05-22T19:13:02.020Z,70.31
2023-05-22T19:23:05.240Z,71.53
2023-05-22T19:33:08.993Z,72.13
2023-05-22T19:43:11.692Z,72.29
2023-05-22T19:53:14.138Z,72.55
2023-05-22T20:03:16.826Z,73.13
2023-05-22T20:13:19.395Z,73.94
2023-05-22T20:23:21.913Z,74.63
2023-05-22T20:40:10.085Z,74.84
2023-05-22T20:50:12.517Z,74.90
2023-05-22T21:00:15.089Z,75.05
2023-05-22T21:10:17.643Z,75.59
2023-05-22T21:20:19.973Z,75.81
2023-05-22T21:30:22.473Z,75.68
2023-05-22T21:40:26.889Z,76.14
2023-05-22T21:50:29.888Z,76.79
2023-05-22T22:00:32.462Z,76.89
2023-05-22T22:10:34.828Z,77.36
2023-05-22T22:20:45.064Z,77.75
2023-05-22T22:30:48.105Z,78.37
2023-05-22T22:40:50.481Z,78.54
2023-05-22T22:50:52.985Z,78.65
2023-05-22T23:00:55.380Z,78.63
2023-05-22T23:10:58.133Z,78.65
2023-05-22T23:21:00.821Z,79.29
2023-05-22T23:31:04.040Z,79.82
2023-05-22T23:41:06.386Z,79.96
2023-05-22T23:51:09.334Z,80.47
